createdAt,value
2022-11-24T00:00:44.723Z,98939.19
2022-11-24T00:05:46.347Z,98942.22
2022-11-24T00:10:48.113Z,98949.06
2022-11-24T00:15:49.762Z,98946.16
2022-11-24T00:20:54.400Z,98961.28
2022-11-24T00:25:56.108Z,98970.09
2022-11-24T00:30:57.845Z,98967.69
2022-11-24T00:36:00.735Z,98965.66
2022-11-24T00:41:02.387Z,98972.25
2022-11-24T00:46:04.478Z,98974.59
2022-11-24T00:51:09.591Z,98979.44
2022-11-24T00:56:12.264Z,98977.28
2022-11-24T01:01:23.153Z,98983.78
2022-11-24T01:06:26.380Z,98998.44
2022-11-24T01:11:52.218Z,99025.88
2022-11-24T01:16:54.675Z,99029.53
2022-11-24T01:21:56.377Z,99032.69
2022-11-24T01:26:58.083Z,99035.22
2022-11-24T01:31:59.702Z,99029.44
2022-11-24T01:37:01.337Z,99024.72
2022-11-24T01:42:02.999Z,99046.34
2022-11-24T01:47:30.830Z,99050.72
2022-11-24T01:52:40.698Z,99046.81
2022-11-24T01:57:51.785Z,99049.81
2022-11-24T02:02:54.681Z,99058.56
2022-11-24T02:08:00.921Z,99056.47
2022-11-24T02:13:02.774Z,99052.13
2022-11-24T02:18:04.468Z,99039.56
2022-11-24T02:23:29.523Z,99043.66
2022-11-24T02:28:32.015Z,99062.16
2022-11-24T02:33:35.034Z,99060.09
2022-11-24T02:38:36.802Z,99047.94
2022-11-24T02:43:47.452Z,99056.84
2022-11-24T02:48:49.223Z,99067.41
2022-11-24T02:53:50.847Z,99072.97
2022-11-24T02:58:52.505Z,99073.44
2022-11-24T03:03:54.116Z,99077.41
2022-11-24T03:08:55.736Z,99084.28
2022-11-24T03:13:57.377Z,99076.66
2022-11-24T03:18:59.082Z,99072.84
2022-11-24T03:24:00.739Z,99071.75
2022-11-24T03:29:02.372Z,99071.00
2022-11-24T03:40:36.539Z,99087.16
2022-11-24T03:45:45.848Z,99092.16
2022-11-24T03:50:58.975Z,99104.53
2022-11-24T03:56:02.040Z,99098.16
2022-11-24T04:01:03.774Z,99104.38
2022-11-24T04:06:05.438Z,99102.44
2022-11-24T04:11:07.315Z,99111.72
2022-11-24T04:16:09.351Z,99114.81
2022-11-24T04:21:11.106Z,99116.78
2022-11-24T04:26:13.658Z,99115.84
2022-11-24T04:31:15.448Z,99114.28
2022-11-24T04:36:17.156Z,99123.00
2022-11-24T04:41:18.785Z,99118.00
2022-11-24T04:46:20.436Z,99123.00
2022-11-24T04:51:22.224Z,99114.56
2022-11-24T04:56:23.914Z,99133.16
2022-11-24T05:01:25.778Z,99147.28
2022-11-24T05:06:27.524Z,99154.59
2022-11-24T05:11:29.294Z,99151.47
2022-11-24T05:16:30.958Z,99167.56
2022-11-24T05:21:32.627Z,99172.56
2022-11-24T05:26:35.589Z,99184.25
2022-11-24T05:31:37.296Z,99183.16
2022-11-24T05:36:54.190Z,99184.09
2022-11-24T05:41:55.854Z,99181.97
2022-11-24T05:46:57.553Z,99179.03
2022-11-24T05:51:59.204Z,99190.41
2022-11-24T05:57:00.825Z,99190.56
2022-11-24T06:02:03.076Z,99202.00
2022-11-24T06:07:07.108Z,99202.94
2022-11-24T06:12:10.887Z,99205.44
2022-11-24T06:17:12.945Z,99216.69
2022-11-24T06:22:14.583Z,99208.78
2022-11-24T06:27:16.325Z,99215.47
2022-11-24T06:32:20.111Z,99217.28
2022-11-24T06:37:22.806Z,99221.91
2022-11-24T06:42:25.488Z,99219.78
2022-11-24T06:47:28.662Z,99224.72
2022-11-24T06:52:32.314Z,99231.53
2022-11-24T06:57:35.762Z,99227.25
2022-11-24T07:02:42.543Z,99235.53
2022-11-24T07:07:47.261Z,99231.69
2022-11-24T07:12:49.955Z,99235.44
2022-11-24T07:17:51.572Z,99242.38
2022-11-24T07:22:57.510Z,99238.03
2022-11-24T07:28:00.071Z,99246.59
2022-11-24T07:33:02.730Z,99250.78
2022-11-24T07:38:04.360Z,99270.28
2022-11-24T07:43:05.988Z,99285.47
2022-11-24T07:48:07.615Z,99294.72
2022-11-24T07:53:09.261Z,99299.66
2022-11-24T07:58:10.942Z,99308.13
2022-11-24T08:03:12.678Z,99309.88
2022-11-24T08:08:14.324Z,99305.72
2022-11-24T08:13:16.166Z,99319.75
2022-11-24T08:18:17.783Z,99330.19
2022-11-24T08:23:19.477Z,99339.75
2022-11-24T08:28:21.439Z,99349.03
2022-11-24T08:33:23.102Z,99348.69
2022-11-24T08:38:24.710Z,99351.88
2022-11-24T08:43:26.318Z,99365.16
2022-11-24T08:48:28.490Z,99368.41
2022-11-24T08:53:30.161Z,99378.28
2022-11-24T08:58:32.263Z,99379.94
2022-11-24T09:03:34.674Z,99386.59
2022-11-24T09:08:37.230Z,99396.66
2022-11-24T09:13:40.126Z,99405.22
2022-11-24T09:18:42.014Z,99412.84
2022-11-24T09:23:44.676Z,99420.38
2022-11-24T09:28:47.202Z,99428.75
2022-11-24T09:33:48.842Z,99429.69
2022-11-24T09:38:53.129Z,99434.91
2022-11-24T09:44:26.205Z,99438.38
2022-11-24T09:49:58.855Z,99442.38
2022-11-24T09:55:03.682Z,99448.81
2022-11-24T10:00:13.309Z,99450.47
2022-11-24T10:05:32.983Z,99460.69
2022-11-24T10:10:52.029Z,99457.91
2022-11-24T10:16:12.746Z,99478.78
2022-11-24T10:21:44.292Z,99460.16
2022-11-24T10:27:16.079Z,99476.09
2022-11-24T10:32:36.857Z,99483.44
2022-11-24T10:38:19.117Z,99476.38
2022-11-24T10:43:21.854Z,99475.94
2022-11-24T10:48:38.110Z,99471.34
2022-11-24T10:53:46.137Z,99484.06
2022-11-24T10:58:50.551Z,99488.09
2022-11-24T11:10:22.111Z,99494.34
2022-11-24T11:15:31.395Z,99492.69
2022-11-24T11:20:39.577Z,99511.50
2022-11-24T11:25:43.834Z,99505.47
2022-11-24T11:31:22.117Z,99520.94
2022-11-24T11:36:27.577Z,99524.16
2022-11-24T11:41:37.136Z,99524.28
2022-11-24T11:46:58.871Z,99526.91
2022-11-24T11:52:23.156Z,99530.72
2022-11-24T11:58:04.867Z,99534.00
2022-11-24T12:03:32.574Z,99526.59
2022-11-24T12:09:19.249Z,99524.94
2022-11-24T12:14:44.823Z,99529.03
2022-11-24T12:20:02.781Z,99544.34
2022-11-24T12:25:39.828Z,99539.84
2022-11-24T12:31:03.182Z,99549.53
2022-11-24T12:36:31.390Z,99549.69
2022-11-24T12:41:58.415Z,99551.09
2022-11-24T12:47:26.830Z,99552.69
2022-11-24T12:52:44.313Z,99556.50
2022-11-24T12:58:09.305Z,99557.72
2022-11-24T13:03:43.531Z,99557.53
2022-11-24T13:08:48.653Z,99554.47
2022-11-24T13:14:02.665Z,99559.50
2022-11-24T13:19:15.136Z,99562.47
2022-11-24T13:24:19.880Z,99573.72
2022-11-24T13:29:28.329Z,99567.97
2022-11-24T13:34:39.131Z,99566.78
2022-11-24T13:39:50.650Z,99569.69
2022-11-24T13:45:31.157Z,99570.47
2022-11-24T13:50:51.745Z,99573.53
2022-11-24T13:56:08.360Z,99578.88
2022-11-24T14:01:13.106Z,99593.69
2022-11-24T14:06:39.817Z,99593.31
2022-11-24T14:11:44.411Z,99589.28
2022-11-24T14:17:17.009Z,99588.66
2022-11-24T14:22:27.754Z,99590.19
2022-11-24T14:27:34.215Z,99591.47
2022-11-24T14:37:53.992Z,99595.22
2022-11-24T14:42:57.634Z,99597.63
2022-11-24T14:48:16.459Z,99597.53
2022-11-24T14:53:26.160Z,99604.16
2022-11-24T14:58:40.519Z,99606.34
2022-11-24T15:03:47.426Z,99618.38
2022-11-24T15:08:50.237Z,99613.16
2022-11-24T15:13:57.227Z,99616.47
2022-11-24T15:19:01.944Z,99622.41
2022-11-24T15:24:25.537Z,99620.75
2022-11-24T15:29:27.336Z,99629.34
2022-11-24T15:34:29.062Z,99634.41
2022-11-24T15:39:32.781Z,99637.94
2022-11-24T15:44:37.059Z,99650.09
2022-11-24T15:49:38.963Z,99651.84
2022-11-24T15:54:40.700Z,99650.75
2022-11-24T15:59:42.331Z,99658.38
2022-11-24T16:04:43.980Z,99654.63
2022-11-24T16:09:45.635Z,99655.13
2022-11-24T16:14:47.252Z,99664.78
2022-11-24T16:19:59.805Z,99664.50
2022-11-24T16:25:04.136Z,99680.78
2022-11-24T16:30:08.321Z,99682.94
2022-11-24T16:35:10.076Z,99685.03
2022-11-24T16:40:12.038Z,99681.47
2022-11-24T16:45:13.822Z,99683.19
2022-11-24T16:50:15.765Z,99690.13
2022-11-24T16:55:17.530Z,99684.50
2022-11-24T17:00:19.304Z,99690.34
2022-11-24T17:05:20.925Z,99690.63
2022-11-24T17:10:22.553Z,99685.44
2022-11-24T17:15:33.656Z,99690.31
2022-11-24T17:20:37.327Z,99697.53
2022-11-24T17:25:39.013Z,99707.56
2022-11-24T17:30:41.127Z,99714.50
2022-11-24T17:35:44.943Z,99707.06
2022-11-24T17:40:50.687Z,99712.78
2022-11-24T17:45:57.246Z,99718.88
2022-11-24T17:51:08.362Z,99712.28
2022-11-24T17:56:16.584Z,99719.06
2022-11-24T18:01:19.396Z,99716.53
2022-11-24T18:06:25.115Z,99719.56
2022-11-24T18:11:32.289Z,99720.59
2022-11-24T18:16:34.925Z,99731.78
2022-11-24T18:21:38.245Z,99736.28
2022-11-24T18:26:41.894Z,99736.41
2022-11-24T18:31:44.277Z,99735.75
2022-11-24T18:36:52.170Z,99738.50
2022-11-24T18:41:54.248Z,99737.66
2022-11-24T18:46:58.097Z,99738.97
2022-11-24T18:51:59.779Z,99734.38
2022-11-24T18:57:03.502Z,99734.19
2022-11-24T19:02:05.551Z,99737.81
2022-11-24T19:07:07.272Z,99728.47
2022-11-24T19:12:10.397Z,99724.44
2022-11-24T19:17:12.282Z,99717.69
2022-11-24T19:22:15.789Z,99710.25
2022-11-24T19:27:20.845Z,99721.63
2022-11-24T19:32:24.569Z,99725.09
2022-11-24T19:37:31.225Z,99733.13
2022-11-24T19:42:33.934Z,99734.06
2022-11-24T19:47:35.645Z,99745.41
2022-11-24T19:52:37.705Z,99742.06
2022-11-24T19:57:39.412Z,99735.84
2022-11-24T20:02:41.200Z,99738.38
2022-11-24T20:07:42.888Z,99739.00
2022-11-24T20:12:44.551Z,99731.94
2022-11-24T20:17:46.649Z,99734.38
2022-11-24T20:22:48.616Z,99744.47
2022-11-24T20:27:52.012Z,99739.28
2022-11-24T20:32:53.714Z,99748.91
2022-11-24T20:37:55.428Z,99745.03
2022-11-24T20:42:57.041Z,99754.06
2022-11-24T20:47:58.720Z,99748.25
2022-11-24T20:53:00.341Z,99749.34
2022-11-24T20:58:02.025Z,99751.31
2022-11-24T21:03:03.659Z,99746.53
2022-11-24T21:08:05.325Z,99761.63
2022-11-24T21:13:06.940Z,99758.63
2022-11-24T21:18:08.552Z,99753.75
2022-11-24T21:23:10.234Z,99765.31
2022-11-24T21:28:13.035Z,99770.75
2022-11-24T21:33:14.709Z,99772.09
2022-11-24T21:38:16.374Z,99765.91
2022-11-24T21:43:18.089Z,99770.81
2022-11-24T21:48:19.725Z,99772.19
2022-11-24T21:53:21.384Z,99773.06
2022-11-24T21:58:23.642Z,99768.81
2022-11-24T22:03:25.604Z,99771.75
2022-11-24T22:08:29.279Z,99766.91
2022-11-24T22:13:31.406Z,99759.34
2022-11-24T22:18:35.387Z,99760.25
2022-11-24T22:23:37.343Z,99752.59
2022-11-24T22:28:39.564Z,99750.16
2022-11-24T22:33:41.439Z,99743.50
2022-11-24T22:38:43.609Z,99745.34
2022-11-24T22:43:46.345Z,99733.34
2022-11-24T22:48:49.429Z,99749.06
2022-11-24T22:54:13.722Z,99742.63
2022-11-24T22:59:15.360Z,99749.03
2022-11-24T23:04:17.011Z,99750.88
2022-11-24T23:09:18.649Z,99762.19
2022-11-24T23:14:20.376Z,99753.69
2022-11-24T23:19:22.172Z,99749.28
2022-11-24T23:24:30.272Z,99751.91
2022-11-24T23:29:31.921Z,99753.03
2022-11-24T23:34:33.833Z,99753.88
2022-11-24T23:39:35.691Z,99758.28
2022-11-24T23:44:37.495Z,99760.34
2022-11-24T23:49:39.170Z,99751.75
2022-11-24T23:54:40.795Z,99759.13
2022-11-24T23:59:42.536Z,99755.41
